地図

経路データ

SID SEASON NUMBER BASIN SUBBASIN NAME ISO_TIME NATURE LAT LON WMO_WIND WMO_PRES WMO_AGENCY TRACK_TYPE DIST2LAND LANDFALL IFLAG USA_AGENCY USA_ATCF_ID USA_LAT USA_LON USA_RECORD USA_STATUS USA_WIND USA_PRES USA_SSHS USA_R34_NE USA_R34_SE USA_R34_SW USA_R34_NW USA_R50_NE USA_R50_SE USA_R50_SW USA_R50_NW USA_R64_NE USA_R64_SE USA_R64_SW USA_R64_NW USA_POCI USA_ROCI USA_RMW USA_EYE TOKYO_LAT TOKYO_LON TOKYO_GRADE TOKYO_WIND TOKYO_PRES TOKYO_R50_DIR TOKYO_R50_LONG TOKYO_R50_SHORT TOKYO_R30_DIR TOKYO_R30_LONG TOKYO_R30_SHORT TOKYO_LAND CMA_LAT CMA_LON CMA_CAT CMA_WIND CMA_PRES HKO_LAT HKO_LON HKO_CAT HKO_WIND HKO_PRES NEWDELHI_LAT NEWDELHI_LON NEWDELHI_GRADE NEWDELHI_WIND NEWDELHI_PRES NEWDELHI_CI NEWDELHI_DP NEWDELHI_POCI REUNION_LAT REUNION_LON REUNION_TYPE REUNION_WIND REUNION_PRES REUNION_TNUM REUNION_CI REUNION_RMW REUNION_R34_NE REUNION_R34_SE REUNION_R34_SW REUNION_R34_NW REUNION_R50_NE REUNION_R50_SE REUNION_R50_SW REUNION_R50_NW REUNION_R64_NE REUNION_R64_SE REUNION_R64_SW REUNION_R64_NW BOM_LAT BOM_LON BOM_TYPE BOM_WIND BOM_PRES BOM_TNUM BOM_CI BOM_RMW BOM_R34_NE BOM_R34_SE BOM_R34_SW BOM_R34_NW BOM_R50_NE BOM_R50_SE BOM_R50_SW BOM_R50_NW BOM_R64_NE BOM_R64_SE BOM_R64_SW BOM_R64_NW BOM_ROCI BOM_POCI BOM_EYE BOM_POS_METHOD BOM_PRES_METHOD NADI_LAT NADI_LON NADI_CAT NADI_WIND NADI_PRES WELLINGTON_LAT WELLINGTON_LON WELLINGTON_WIND WELLINGTON_PRES DS824_LAT DS824_LON DS824_STAGE DS824_WIND DS824_PRES TD9636_LAT TD9636_LON TD9636_STAGE TD9636_WIND TD9636_PRES TD9635_LAT TD9635_LON TD9635_WIND TD9635_PRES TD9635_ROCI NEUMANN_LAT NEUMANN_LON NEUMANN_CLASS NEUMANN_WIND NEUMANN_PRES MLC_LAT MLC_LON MLC_CLASS MLC_WIND MLC_PRES USA_GUST BOM_GUST BOM_GUST_PER REUNION_GUST REUNION_GUST_PER USA_SEAHGT USA_SEARAD_NE USA_SEARAD_SE USA_SEARAD_SW USA_SEARAD_NW STORM_SPEED STORM_DIR
2000244N13229 2000 74 EP MM KRISTY 2000-08-31 00:00:00 TS 13.0000 -131.400 25 1008 hurdat_epa main 2366 2366 O_____________ hurdat_epa EP132000 13.0000 -131.400 TD 25 1008 -1 9 283
2000244N13229 2000 74 EP MM KRISTY 2000-08-31 03:00:00 TS 13.0977 -131.840 main 2388 2388 P_____________ EP132000 13.0977 -131.840 TD 25 1008 -1 8 284
2000244N13229 2000 74 EP MM KRISTY 2000-08-31 06:00:00 TS 13.2000 -132.200 25 1008 hurdat_epa main 2410 2410 O_____________ hurdat_epa EP132000 13.2000 -132.200 TD 25 1008 -1 6 290
2000244N13229 2000 74 EP MM KRISTY 2000-08-31 09:00:00 TS 13.3074 -132.430 main 2418 2418 P_____________ EP132000 13.3074 -132.430 TD 27 1008 -1 4 297
2000244N13229 2000 74 EP MM KRISTY 2000-08-31 12:00:00 TS 13.4000 -132.600 30 1008 hurdat_epa main 2426 2426 O_____________ hurdat_epa EP132000 13.4000 -132.600 TD 30 1008 -1 4 291
2000244N13229 2000 74 EP MM KRISTY 2000-08-31 15:00:00 TS 13.4500 -132.815 main 2433 2417 P_____________ EP132000 13.4500 -132.815 TD 30 1007 -1 4 284
2000244N13229 2000 74 EP MM KRISTY 2000-08-31 18:00:00 TS 13.5000 -133.000 30 1007 hurdat_epa main 2417 2403 O_____________ hurdat_epa EP132000 13.5000 -133.000 TD 30 1007 -1 3 296
2000244N13229 2000 74 EP MM KRISTY 2000-08-31 21:00:00 TS 13.6000 -133.130 main 2403 2389 P_____________ EP132000 13.6000 -133.130 TD 30 1007 -1 3 316
2000244N13229 2000 74 EP MM KRISTY 2000-09-01 00:00:00 TS 13.7000 -133.200 30 1007 hurdat_epa main 2389 2386 O_____________ hurdat_epa EP132000 13.7000 -133.200 TD 30 1007 -1 2 336
2000244N13229 2000 74 EP MM KRISTY 2000-09-01 03:00:00 TS 13.7650 -133.208 main 2386 2386 P_____________ EP132000 13.7650 -133.208 TD 30 1007 -1 1 0
2000244N13229 2000 74 EP MM KRISTY 2000-09-01 06:00:00 TS 13.8000 -133.200 30 1007 hurdat_epa main 2386 2386 O_____________ hurdat_epa EP132000 13.8000 -133.200 TD 30 1007 -1 1 325
2000244N13229 2000 74 EP MM KRISTY 2000-09-01 09:00:00 TS 13.8300 -133.250 main 2386 2375 P_____________ EP132000 13.8300 -133.250 TD 30 1006 -1 1 270
2000244N13229 2000 74 EP MM KRISTY 2000-09-01 12:00:00 TS 13.8000 -133.300 30 1006 hurdat_epa main 2375 2375 O_____________ hurdat_epa EP132000 13.8000 -133.300 TD 30 1006 -1 2 200
2000244N13229 2000 74 EP MM KRISTY 2000-09-01 15:00:00 TS 13.6725 -133.308 main 2379 2379 P_____________ EP132000 13.6725 -133.308 TD 30 1006 -1 3 0
2000244N13229 2000 74 EP MM KRISTY 2000-09-01 18:00:00 TS 13.5000 -133.300 30 1006 hurdat_epa main 2386 2386 O_____________ hurdat_epa EP132000 13.5000 -133.300 TD 30 1006 -1 3 0
2000244N13229 2000 74 EP MM KRISTY 2000-09-01 21:00:00 TS 13.3275 -133.285 main 2394 2394 P_____________ EP132000 13.3275 -133.285 TD 32 1005 -1 3 0
2000244N13229 2000 74 EP MM KRISTY 2000-09-02 00:00:00 TS 13.2000 -133.300 35 1004 hurdat_epa main 2398 2387 O_____________ hurdat_epa EP132000 13.2000 -133.300 TS 35 1004 0 2 214
2000244N13229 2000 74 EP MM KRISTY 2000-09-02 03:00:00 TS 13.1475 -133.408 main 2391 2377 P_____________ EP132000 13.1475 -133.408 TS 35 1004 0 2 270
2000244N13229 2000 74 EP MM KRISTY 2000-09-02 06:00:00 TS 13.2000 -133.500 35 1005 hurdat_epa main 2377 2373 O_____________ hurdat_epa EP132000 13.2000 -133.500 TS 35 1005 0 2 340
2000244N13229 2000 74 EP MM KRISTY 2000-09-02 09:00:00 TS 13.3475 -133.480 main 2373 2370 P_____________ EP132000 13.3475 -133.480 TS 35 1005 0 4 13
2000244N13229 2000 74 EP MM KRISTY 2000-09-02 12:00:00 TS 13.6000 -133.400 35 1006 hurdat_epa main 2372 2369 O_____________ hurdat_epa EP132000 13.6000 -133.400 TS 35 1006 0 6 17
2000244N13229 2000 74 EP MM KRISTY 2000-09-02 15:00:00 TS 13.9500 -133.293 main 2368 2365 P_____________ EP132000 13.9500 -133.293 TS 32 1006 -1 7 15
2000244N13229 2000 74 EP MM KRISTY 2000-09-02 18:00:00 TS 14.3000 -133.200 30 1007 hurdat_epa main 2369 2362 O_____________ hurdat_epa EP132000 14.3000 -133.200 TD 30 1007 -1 6 10
2000244N13229 2000 74 EP MM KRISTY 2000-09-02 21:00:00 TS 14.5375 -133.177 main 2362 2356 P_____________ EP132000 14.5375 -133.177 TD 27 1007 -1 4 0
2000244N13229 2000 74 EP MM KRISTY 2000-09-03 00:00:00 TS 14.7000 -133.200 25 1007 hurdat_epa main 2356 O_____________ hurdat_epa EP132000 14.7000 -133.200 TD 25 1007 -1 3 355

IBTrACS Databaseについて

本データベースは、米国NOAAが公開する1842年以降の世界の熱帯低気圧のベストトラックデータアーカイブInternational Best Track Archive for Climate Stewardship (IBTrACS)を、ウェブで閲覧しやすい形式に変換したものです。

最終更新日:2021-11-26